Time;durP1;ratioP1;P1;durP2;ratioP2;P2;SDS_P1;SDS_P2;PMS_P1;PMS_P2;Temp;Humidity;BMP_temperature;BMP_pressure;BME280_temperature;BME280_humidity;BME280_pressure;Samples;Min_cycle;Max_cycle;Signal;HPM_P1;HPM_P2
2023/04/03 00:01:33;;;;;;;9.95;5.97;;;2.40;99.90;;;;;;4979111;28;20026;-56
2023/04/03 00:03:58;;;;;;;8.82;6.05;;;2.30;99.90;;;;;;4983419;28;20058;-56
2023/04/03 00:06:24;;;;;;;7.95;5.93;;;2.30;99.90;;;;;;4977594;28;20038;-56
2023/04/03 00:08:52;;;;;;;10.32;6.43;;;2.30;99.90;;;;;;4977605;28;20621;-56
2023/04/03 00:11:18;;;;;;;9.80;6.50;;;2.30;99.90;;;;;;4977221;28;20065;-57
2023/04/03 00:13:44;;;;;;;11.90;7.40;;;2.30;99.90;;;;;;4981706;28;20475;-56
2023/04/03 00:16:11;;;;;;;7.97;6.40;;;2.20;99.90;;;;;;4980446;28;20035;-56
2023/04/03 00:18:38;;;;;;;10.25;6.90;;;2.20;99.90;;;;;;4982332;28;20642;-57
2023/04/03 00:21:04;;;;;;;9.88;6.53;;;2.20;99.90;;;;;;4976944;28;20027;-57
2023/04/03 00:23:30;;;;;;;10.35;6.82;;;2.20;99.90;;;;;;4979416;28;20557;-57
2023/04/03 00:25:56;;;;;;;14.10;9.63;;;2.20;99.90;;;;;;4975295;28;20034;-57
2023/04/03 00:28:22;;;;;;;12.40;7.90;;;2.30;99.90;;;;;;4979223;28;20042;-57
2023/04/03 00:30:50;;;;;;;11.90;7.53;;;2.20;99.90;;;;;;4983332;28;20092;-57
2023/04/03 00:33:16;;;;;;;10.48;7.05;;;2.20;99.90;;;;;;4975881;28;20038;-57
2023/04/03 00:35:42;;;;;;;9.20;7.22;;;2.10;99.90;;;;;;4979326;28;20038;-57
2023/04/03 00:38:08;;;;;;;10.02;6.93;;;2.10;99.90;;;;;;4974554;28;20054;-57
2023/04/03 00:40:41;;;;;;;11.73;7.28;;;2.10;99.90;;;;;;4979506;28;20126;-57
2023/04/03 00:43:27;;;;;;;9.80;6.65;;;2.10;99.90;;;;;;4980560;28;20667;-57
2023/04/03 00:45:54;;;;;;;10.73;6.72;;;2.10;99.90;;;;;;4978655;28;20041;-57
2023/04/03 00:48:47;;;;;;;10.57;6.78;;;2.00;99.90;;;;;;4971543;28;20093;-58
2023/04/03 00:51:24;;;;;;;7.07;5.18;;;1.90;99.90;;;;;;4979542;28;20034;-57
2023/04/03 00:53:54;;;;;;;9.85;7.03;;;1.90;99.90;;;;;;4977247;28;20035;-57
2023/04/03 00:56:23;;;;;;;9.40;6.60;;;2.00;99.90;;;;;;4977992;28;20102;-58
2023/04/03 00:59:05;;;;;;;9.73;6.75;;;2.10;99.90;;;;;;4980326;28;20353;-58
2023/04/03 01:01:31;;;;;;;10.70;7.55;;;2.00;99.90;;;;;;4978625;28;20865;-58
2023/04/03 01:03:59;;;;;;;11.95;7.60;;;2.00;99.90;;;;;;4978961;28;20049;-58
2023/04/03 01:06:31;;;;;;;10.45;7.68;;;2.00;99.90;;;;;;4974328;28;20482;-58
2023/04/03 01:08:58;;;;;;;12.25;6.40;;;2.00;99.90;;;;;;4979593;28;20533;-57
2023/04/03 01:11:23;;;;;;;12.40;8.90;;;1.90;99.90;;;;;;4982069;28;20125;-58
2023/04/03 01:13:49;;;;;;;11.60;8.55;;;2.00;99.90;;;;;;4985356;28;20117;-58
2023/04/03 01:16:15;;;;;;;15.23;8.82;;;1.90;99.90;;;;;;4983197;28;20160;-58
2023/04/03 01:18:41;;;;;;;14.50;9.75;;;1.80;99.90;;;;;;4981037;28;20026;-58
2023/04/03 01:21:26;;;;;;;14.07;9.48;;;1.80;99.90;;;;;;4981818;28;20031;-58
2023/04/03 01:24:22;;;;;;;12.15;9.23;;;1.80;99.90;;;;;;4981419;28;20125;-58
2023/04/03 01:26:49;;;;;;;14.63;8.88;;;1.80;99.90;;;;;;4977806;28;20101;-58
2023/04/03 01:29:15;;;;;;;15.10;9.02;;;1.80;99.90;;;;;;4982967;28;20061;-58
2023/04/03 01:32:01;;;;;;;13.40;8.40;;;1.80;99.90;;;;;;4981115;28;20035;-58
2023/04/03 01:34:28;;;;;;;12.23;8.77;;;1.80;99.90;;;;;;4980313;28;20155;-58
2023/04/03 01:36:54;;;;;;;13.43;9.48;;;1.70;99.90;;;;;;4983818;28;20038;-58
2023/04/03 01:39:19;;;;;;;15.43;8.98;;;1.70;99.90;;;;;;4983802;28;20536;-58
2023/04/03 01:41:45;;;;;;;12.25;9.10;;;1.60;99.90;;;;;;4982118;28;20371;-57
2023/04/03 01:44:11;;;;;;;14.32;9.70;;;1.70;99.90;;;;;;4984113;28;20524;-57
2023/04/03 01:46:37;;;;;;;17.23;10.00;;;1.70;99.90;;;;;;4979582;28;20130;-58
2023/04/03 01:49:03;;;;;;;13.32;9.25;;;1.70;99.90;;;;;;4980597;28;20498;-57
2023/04/03 01:51:29;;;;;;;13.73;10.07;;;1.70;99.90;;;;;;4979326;28;20054;-57
2023/04/03 01:53:55;;;;;;;17.17;10.13;;;1.70;99.90;;;;;;4982750;28;20030;-58
2023/04/03 01:56:21;;;;;;;14.10;9.85;;;1.90;99.90;;;;;;4972212;28;20208;-58
2023/04/03 01:58:47;;;;;;;17.95;9.68;;;1.90;99.90;;;;;;4976626;28;20058;-58
2023/04/03 02:01:12;;;;;;;15.52;10.00;;;2.10;99.90;;;;;;4979470;28;20372;-58
2023/04/03 02:03:38;;;;;;;16.48;9.88;;;2.10;99.90;;;;;;4983978;28;20042;-57
2023/04/03 02:06:04;;;;;;;13.20;8.93;;;2.20;99.90;;;;;;4978987;28;20031;-58
2023/04/03 02:08:30;;;;;;;17.48;9.70;;;2.20;99.90;;;;;;4981080;28;20486;-56
2023/04/03 02:10:55;;;;;;;18.20;9.65;;;2.20;99.90;;;;;;4983780;28;20039;-57
2023/04/03 02:13:21;;;;;;;14.32;9.60;;;2.20;99.90;;;;;;4983444;28;20218;-58
2023/04/03 02:15:47;;;;;;;20.10;10.00;;;2.30;99.90;;;;;;4978519;28;20038;-57
2023/04/03 02:18:15;;;;;;;15.05;8.93;;;2.30;99.90;;;;;;4982592;28;20049;-57
2023/04/03 02:20:41;;;;;;;16.70;9.90;;;2.40;99.90;;;;;;4981282;28;20050;-57
2023/04/03 02:23:06;;;;;;;14.38;8.93;;;2.30;99.90;;;;;;4982512;28;20425;-57
2023/04/03 02:25:32;;;;;;;13.73;9.43;;;2.30;99.90;;;;;;4984760;28;20057;-57
2023/04/03 02:27:58;;;;;;;16.75;8.88;;;2.30;99.90;;;;;;4984038;28;20049;-56
2023/04/03 02:30:24;;;;;;;15.00;9.32;;;2.40;99.90;;;;;;4983983;28;20026;-57
2023/04/03 02:32:50;;;;;;;15.40;9.90;;;2.40;99.90;;;;;;4983358;28;20346;-57
2023/04/03 02:35:16;;;;;;;15.38;8.98;;;2.50;99.90;;;;;;4982472;28;20145;-56
2023/04/03 02:37:41;;;;;;;14.73;8.45;;;2.50;99.90;;;;;;4979845;28;20044;-56
2023/04/03 02:40:07;;;;;;;15.65;8.32;;;2.50;99.90;;;;;;4980761;28;20038;-55
2023/04/03 02:42:33;;;;;;;18.80;8.30;;;2.40;99.90;;;;;;4982632;28;20031;-57
2023/04/03 02:45:00;;;;;;;15.93;8.02;;;2.40;99.90;;;;;;4983189;28;20157;-56
2023/04/03 02:47:26;;;;;;;16.90;7.65;;;2.50;99.90;;;;;;4981724;28;20042;-57
2023/04/03 02:49:52;;;;;;;13.52;7.20;;;2.50;99.90;;;;;;4983902;28;20117;-56
2023/04/03 02:52:18;;;;;;;15.05;7.32;;;2.40;99.90;;;;;;4978394;28;20414;-57
2023/04/03 02:54:43;;;;;;;12.38;6.82;;;2.60;99.90;;;;;;4980684;28;20053;-57
2023/04/03 02:57:09;;;;;;;11.57;6.47;;;2.90;99.90;;;;;;4979126;28;20165;-57
2023/04/03 02:59:36;;;;;;;10.65;6.68;;;2.70;99.90;;;;;;4984733;28;20031;-56
2023/04/03 03:02:01;;;;;;;11.82;6.50;;;2.50;99.90;;;;;;4982129;28;20030;-56
2023/04/03 03:04:27;;;;;;;10.80;6.70;;;2.60;99.90;;;;;;4983724;28;20046;-56
2023/04/03 03:06:53;;;;;;;12.95;6.43;;;2.60;99.90;;;;;;4981298;28;20029;-57
2023/04/03 03:09:18;;;;;;;12.30;6.45;;;2.60;99.90;;;;;;4980735;28;20053;-57
2023/04/03 03:11:44;;;;;;;14.10;6.22;;;2.60;99.90;;;;;;4979930;28;20046;-57
2023/04/03 03:14:09;;;;;;;9.77;5.45;;;2.60;99.90;;;;;;4983948;28;20069;-57
2023/04/03 03:16:35;;;;;;;10.43;5.80;;;2.50;99.90;;;;;;4983009;28;20120;-57
2023/04/03 03:19:01;;;;;;;10.10;5.55;;;2.60;99.90;;;;;;4982858;28;20096;-57
2023/04/03 03:21:26;;;;;;;12.25;5.72;;;2.50;99.90;;;;;;4979609;28;20030;-57
2023/04/03 03:23:52;;;;;;;9.40;5.30;;;2.70;99.90;;;;;;4983734;28;20049;-57
2023/04/03 03:26:18;;;;;;;14.57;4.93;;;2.80;99.90;;;;;;4980383;28;20567;-56
2023/04/03 03:28:43;;;;;;;8.85;4.60;;;2.90;99.90;;;;;;4984162;28;20038;-57
2023/04/03 03:31:10;;;;;;;7.80;4.38;;;2.70;99.90;;;;;;4986437;28;20446;-57
2023/04/03 03:33:35;;;;;;;8.23;4.35;;;2.80;99.90;;;;;;4975870;28;20115;-57
2023/04/03 03:36:01;;;;;;;8.95;4.25;;;3.00;99.90;;;;;;4984120;28;20494;-56
2023/04/03 03:38:27;;;;;;;8.70;4.40;;;2.90;99.90;;;;;;4980426;28;20042;-56
2023/04/03 03:40:52;;;;;;;11.07;4.10;;;2.70;99.90;;;;;;4979987;28;20045;-57
2023/04/03 03:43:18;;;;;;;8.00;3.75;;;2.80;99.90;;;;;;4978605;28;20143;-57
2023/04/03 03:45:46;;;;;;;6.53;3.42;;;2.80;99.90;;;;;;4981979;28;20034;-56
2023/04/03 03:48:11;;;;;;;9.25;3.67;;;2.70;99.90;;;;;;4982541;28;20133;-57
2023/04/03 03:50:37;;;;;;;8.07;3.63;;;2.70;99.90;;;;;;4983141;28;20041;-56
2023/04/03 03:53:02;;;;;;;9.95;2.90;;;2.80;99.90;;;;;;4979480;28;20046;-57
2023/04/03 03:55:28;;;;;;;10.35;3.70;;;3.00;99.90;;;;;;4980818;28;20038;-57
2023/04/03 03:57:53;;;;;;;6.45;2.75;;;3.00;99.90;;;;;;4981696;28;20050;-56
2023/04/03 04:00:19;;;;;;;6.45;2.80;;;3.00;99.90;;;;;;4974863;28;20042;-57
2023/04/03 04:02:45;;;;;;;9.63;3.47;;;3.00;99.90;;;;;;4982171;28;20368;-56
2023/04/03 04:05:11;;;;;;;9.55;4.43;;;2.90;99.90;;;;;;4982381;28;20027;-57
2023/04/03 04:07:36;;;;;;;10.25;3.05;;;2.80;99.90;;;;;;4980098;28;20116;-56
2023/04/03 04:10:03;;;;;;;4.90;2.50;;;2.70;99.90;;;;;;4969173;28;20053;-55
2023/04/03 04:12:29;;;;;;;9.10;3.22;;;2.70;99.90;;;;;;4982938;28;20026;-56
2023/04/03 04:14:54;;;;;;;8.20;2.70;;;2.70;99.90;;;;;;4979621;28;20208;-57
2023/04/03 04:17:20;;;;;;;7.45;2.83;;;2.70;99.90;;;;;;4979904;28;20384;-57
2023/04/03 04:19:46;;;;;;;5.75;3.38;;;2.80;99.90;;;;;;4980431;28;20030;-56
2023/04/03 04:22:11;;;;;;;7.90;2.97;;;2.70;99.90;;;;;;4979770;28;20126;-56
2023/04/03 04:24:37;;;;;;;11.13;3.55;;;2.80;99.90;;;;;;4983178;28;20026;-56
2023/04/03 04:27:02;;;;;;;8.20;2.90;;;2.60;99.90;;;;;;4979188;28;20530;-57
2023/04/03 04:29:28;;;;;;;10.32;3.38;;;2.70;99.90;;;;;;4980319;28;20041;-57
2023/04/03 04:31:54;;;;;;;8.25;3.50;;;2.50;99.90;;;;;;4978086;28;20085;-57
2023/04/03 04:34:19;;;;;;;9.02;3.55;;;2.60;99.90;;;;;;4974905;28;20224;-56
2023/04/03 04:36:45;;;;;;;13.23;3.50;;;2.60;99.90;;;;;;4980254;28;20141;-57
2023/04/03 04:39:11;;;;;;;9.52;3.13;;;2.60;99.90;;;;;;4981709;28;20105;-57
2023/04/03 04:41:36;;;;;;;8.30;3.17;;;2.50;99.90;;;;;;4981606;28;20030;-57
2023/04/03 04:44:02;;;;;;;10.95;3.20;;;2.40;99.90;;;;;;4980979;28;20034;-57
2023/04/03 04:46:28;;;;;;;10.68;3.42;;;2.50;99.90;;;;;;4982205;28;20046;-57
2023/04/03 04:48:53;;;;;;;6.78;3.75;;;2.60;99.90;;;;;;4986876;28;20065;-56
2023/04/03 04:51:19;;;;;;;9.07;4.03;;;2.40;99.90;;;;;;4984416;28;20218;-57
2023/04/03 04:53:45;;;;;;;12.75;3.63;;;2.60;99.90;;;;;;4984020;28;20050;-56
2023/04/03 04:56:10;;;;;;;13.18;4.50;;;2.70;99.90;;;;;;4981227;28;20081;-57
2023/04/03 04:58:36;;;;;;;10.77;4.15;;;2.80;99.90;;;;;;4986136;28;20088;-56
2023/04/03 05:01:05;;;;;;;10.23;3.90;;;2.90;99.90;;;;;;4986130;28;20129;-56
2023/04/03 05:03:31;;;;;;;7.55;3.38;;;2.60;99.90;;;;;;4985165;28;20567;-57
2023/04/03 05:05:57;;;;;;;12.93;4.07;;;2.70;99.90;;;;;;4984634;28;20525;-56
2023/04/03 05:08:22;;;;;;;9.05;4.05;;;2.30;99.90;;;;;;4982284;28;20077;-57
2023/04/03 05:10:48;;;;;;;10.27;3.90;;;2.40;99.90;;;;;;4979058;28;20045;-57
2023/04/03 05:13:14;;;;;;;9.77;3.95;;;2.50;99.90;;;;;;4980032;28;20108;-57
2023/04/03 05:15:39;;;;;;;10.27;4.05;;;2.60;99.90;;;;;;4980463;28;20298;-57
2023/04/03 05:18:05;;;;;;;11.98;4.43;;;2.50;99.90;;;;;;4985541;28;20062;-56
2023/04/03 05:20:32;;;;;;;11.60;4.57;;;2.50;99.90;;;;;;4981774;28;20105;-57
2023/04/03 05:22:57;;;;;;;12.15;4.00;;;2.60;99.90;;;;;;4984202;28;20041;-56
2023/04/03 05:25:23;;;;;;;12.00;4.07;;;2.50;99.90;;;;;;4979550;28;20673;-56
2023/04/03 05:27:49;;;;;;;12.98;4.18;;;2.60;99.90;;;;;;4985665;28;20034;-56
2023/04/03 05:30:14;;;;;;;11.90;3.97;;;2.70;99.90;;;;;;4985274;28;20144;-55
2023/04/03 05:32:40;;;;;;;11.30;3.78;;;2.80;99.90;;;;;;4983557;28;20421;-54
2023/04/03 05:35:07;;;;;;;9.50;3.50;;;2.70;99.90;;;;;;4984445;28;20045;-54
2023/04/03 05:37:33;;;;;;;10.90;3.75;;;2.80;99.90;;;;;;4983943;28;20027;-54
2023/04/03 05:39:59;;;;;;;11.25;4.10;;;2.70;99.90;;;;;;4979912;28;20041;-55
2023/04/03 05:42:25;;;;;;;9.60;3.72;;;2.80;99.90;;;;;;4984568;28;20049;-54
2023/04/03 05:44:50;;;;;;;10.15;3.63;;;2.80;99.90;;;;;;4985351;28;20442;-55
2023/04/03 05:47:17;;;;;;;8.38;3.25;;;2.80;99.90;;;;;;4984503;28;20042;-55
2023/04/03 05:49:45;;;;;;;10.52;3.25;;;2.60;99.90;;;;;;4983112;28;20169;-54
2023/04/03 05:52:28;;;;;;;11.40;2.95;;;2.70;99.90;;;;;;4982850;28;20398;-55
2023/04/03 05:54:54;;;;;;;11.10;2.78;;;2.90;99.90;;;;;;4983768;28;20066;-55
2023/04/03 05:57:20;;;;;;;6.15;2.42;;;2.90;99.90;;;;;;4979825;28;20034;-55
2023/04/03 05:59:46;;;;;;;8.93;2.72;;;2.80;99.90;;;;;;4984074;28;20030;-52
2023/04/03 06:02:21;;;;;;;11.13;2.92;;;2.90;99.90;;;;;;4980010;28;20042;-55
2023/04/03 06:04:47;;;;;;;7.63;2.67;;;3.00;99.90;;;;;;4984594;28;20045;-55
2023/04/03 06:07:15;;;;;;;5.78;2.55;;;3.10;99.90;;;;;;4981317;28;20042;-54
2023/04/03 06:09:41;;;;;;;6.32;2.50;;;3.10;99.90;;;;;;4981549;28;20046;-55
2023/04/03 06:12:07;;;;;;;6.55;2.67;;;3.00;99.90;;;;;;4983125;28;20403;-55
2023/04/03 06:14:33;;;;;;;8.10;2.67;;;3.20;99.90;;;;;;4982425;28;20030;-55
2023/04/03 06:16:59;;;;;;;5.35;3.05;;;3.20;99.90;;;;;;4983866;28;20092;-54
2023/04/03 06:19:25;;;;;;;8.30;2.83;;;3.30;99.90;;;;;;4985137;28;20105;-55
2023/04/03 06:21:51;;;;;;;5.53;2.88;;;3.30;99.90;;;;;;4983097;28;20576;-55
2023/04/03 06:24:18;;;;;;;9.10;3.33;;;3.20;99.90;;;;;;4985144;28;20034;-55
2023/04/03 06:26:44;;;;;;;9.77;3.00;;;3.40;99.90;;;;;;4984434;28;20036;-55
2023/04/03 06:29:10;;;;;;;8.27;3.10;;;3.50;99.90;;;;;;4976866;28;20121;-55
2023/04/03 06:31:38;;;;;;;7.00;2.70;;;3.50;99.90;;;;;;4981596;28;20035;-55
2023/04/03 06:34:06;;;;;;;7.70;2.60;;;3.70;99.90;;;;;;4976665;28;20053;-55
2023/04/03 06:36:31;;;;;;;11.68;3.17;;;3.80;99.90;;;;;;4974960;28;20049;-54
2023/04/03 06:38:57;;;;;;;7.82;3.17;;;3.60;99.90;;;;;;4984316;28;20418;-55
2023/04/03 06:41:23;;;;;;;8.35;2.85;;;3.60;99.90;;;;;;4977839;28;20030;-54
2023/04/03 06:43:48;;;;;;;10.95;3.42;;;3.60;99.90;;;;;;4980293;28;20057;-54
2023/04/03 06:46:16;;;;;;;6.18;2.67;;;3.60;99.90;;;;;;4974133;28;20074;-53
2023/04/03 06:48:42;;;;;;;6.07;2.40;;;3.70;99.90;;;;;;4979344;28;20034;-54
2023/04/03 06:51:29;;;;;;;6.97;2.70;;;3.80;99.90;;;;;;4981620;28;20125;-54
2023/04/03 06:53:57;;;;;;;5.68;2.28;;;3.90;99.90;;;;;;4978236;28;20481;-55
2023/04/03 06:56:23;;;;;;;6.25;2.75;;;3.90;99.90;;;;;;4983535;28;21011;-55
2023/04/03 06:58:50;;;;;;;5.03;2.60;;;3.70;99.90;;;;;;4982872;28;20050;-55
2023/04/03 07:01:18;;;;;;;8.07;2.58;;;3.90;99.90;;;;;;4982937;28;20073;-54
2023/04/03 07:03:46;;;;;;;6.38;2.70;;;4.00;99.90;;;;;;4980807;28;20117;-54
2023/04/03 07:06:12;;;;;;;8.45;3.00;;;3.90;99.90;;;;;;4976285;28;20058;-54
2023/04/03 07:08:39;;;;;;;5.82;2.90;;;4.00;99.90;;;;;;4980824;28;20112;-54
2023/04/03 07:11:05;;;;;;;8.50;3.22;;;4.20;99.90;;;;;;4984025;28;20038;-55
2023/04/03 07:13:32;;;;;;;8.70;2.65;;;4.20;99.90;;;;;;4980370;28;20041;-54
2023/04/03 07:15:58;;;;;;;6.63;1.73;;;4.10;99.90;;;;;;4978742;28;20038;-54
2023/04/03 07:18:24;;;;;;;8.00;2.75;;;4.10;99.90;;;;;;4977357;28;20471;-55
2023/04/03 07:20:50;;;;;;;8.45;2.90;;;4.20;99.90;;;;;;4983203;28;20079;-54
2023/04/03 07:23:16;;;;;;;8.93;3.38;;;4.30;99.90;;;;;;4976373;28;20077;-54
2023/04/03 07:25:46;;;;;;;7.47;3.05;;;4.30;99.90;;;;;;4978102;28;20481;-55
2023/04/03 07:28:12;;;;;;;13.73;3.67;;;4.30;99.90;;;;;;4980281;28;20050;-57
2023/04/03 07:30:50;;;;;;;15.27;4.00;;;4.50;99.90;;;;;;4976279;28;20035;-57
2023/04/03 07:33:17;;;;;;;11.38;2.90;;;4.50;99.90;;;;;;4980510;28;20097;-56
2023/04/03 07:35:43;;;;;;;10.98;3.35;;;4.60;99.90;;;;;;4976133;28;20109;-57
2023/04/03 07:38:10;;;;;;;9.27;3.72;;;4.60;99.90;;;;;;4976473;28;20041;-57
2023/04/03 07:40:36;;;;;;;11.32;3.40;;;4.50;99.90;;;;;;4983641;28;20095;-57
2023/04/03 07:43:02;;;;;;;7.20;2.35;;;4.50;99.90;;;;;;4980115;28;20022;-57
2023/04/03 07:45:28;;;;;;;9.68;2.80;;;4.50;99.90;;;;;;4984535;28;20037;-57
2023/04/03 07:47:54;;;;;;;11.30;4.40;;;4.60;99.90;;;;;;4980178;28;20779;-57
2023/04/03 07:50:19;;;;;;;12.55;3.65;;;4.40;99.90;;;;;;4979269;28;20054;-56
2023/04/03 07:52:46;;;;;;;11.57;3.75;;;4.50;99.90;;;;;;4980841;28;20117;-57
2023/04/03 07:55:11;;;;;;;12.82;3.63;;;4.60;99.90;;;;;;4980362;28;20494;-57
2023/04/03 07:57:37;;;;;;;10.30;3.60;;;4.80;99.90;;;;;;4979878;28;20089;-56
2023/04/03 08:00:06;;;;;;;11.88;3.30;;;4.90;99.90;;;;;;4980205;28;20189;-56
2023/04/03 08:02:32;;;;;;;10.73;3.50;;;5.00;99.90;;;;;;4979147;28;20042;-56
2023/04/03 08:04:58;;;;;;;7.15;2.92;;;4.90;99.90;;;;;;4980048;28;20027;-57
2023/04/03 08:07:25;;;;;;;6.72;2.83;;;4.80;99.90;;;;;;4979389;28;20084;-54
2023/04/03 08:09:50;;;;;;;10.80;3.45;;;5.00;99.90;;;;;;4983332;28;20109;-56
2023/04/03 08:12:16;;;;;;;8.68;2.65;;;5.30;99.90;;;;;;4977382;28;20524;-52
2023/04/03 08:14:42;;;;;;;5.07;1.75;;;5.40;99.90;;;;;;4980862;28;20030;-53
2023/04/03 08:17:11;;;;;;;6.25;2.10;;;5.00;99.90;;;;;;4973818;28;20045;-53
2023/04/03 08:19:38;;;;;;;5.40;2.28;;;5.10;99.90;;;;;;4982192;28;20402;-55
2023/04/03 08:22:04;;;;;;;5.75;1.73;;;5.40;99.90;;;;;;4977027;28;20081;-53
2023/04/03 08:24:30;;;;;;;4.85;2.20;;;5.40;99.90;;;;;;4981232;28;20026;-54
2023/04/03 08:26:56;;;;;;;4.95;2.20;;;5.60;99.90;;;;;;4981551;28;20034;-54
2023/04/03 08:29:23;;;;;;;5.32;1.70;;;5.80;99.90;;;;;;4975493;28;20085;-54
2023/04/03 08:31:50;;;;;;;4.13;1.80;;;5.70;99.90;;;;;;4981969;28;20104;-52
2023/04/03 08:34:15;;;;;;;5.05;1.92;;;5.60;99.90;;;;;;4979779;28;20553;-53
2023/04/03 08:36:42;;;;;;;5.30;2.20;;;5.50;99.90;;;;;;4980063;28;20034;-53
2023/04/03 08:39:07;;;;;;;6.18;2.67;;;5.50;99.90;;;;;;4977979;28;20050;-51
2023/04/03 08:41:39;;;;;;;4.57;1.90;;;5.60;99.90;;;;;;4981828;28;20393;-54
2023/04/03 08:44:17;;;;;;;8.27;2.28;;;5.70;99.90;;;;;;4976777;28;20109;-54
2023/04/03 08:47:00;;;;;;;5.47;1.88;;;5.80;99.90;;;;;;4977459;28;20065;-54
2023/04/03 08:50:04;;;;;;;7.88;1.70;;;6.00;99.90;;;;;;4978167;28;20062;-54
2023/04/03 08:52:52;;;;;;;6.97;2.10;;;6.10;99.90;;;;;;4939667;28;20523;-54
2023/04/03 08:55:51;;;;;;;7.85;1.88;;;5.90;99.90;;;;;;4977422;28;20511;-54
2023/04/03 08:58:23;;;;;;;6.32;2.45;;;5.90;99.90;;;;;;4973654;28;20061;-54
2023/04/03 09:01:21;;;;;;;9.57;3.00;;;6.20;99.90;;;;;;4980650;28;20061;-54
2023/04/03 09:03:46;;;;;;;4.45;1.77;;;6.40;99.90;;;;;;4974803;28;20054;-52
2023/04/03 09:06:18;;;;;;;5.43;1.52;;;6.50;99.90;;;;;;4980118;28;20035;-54
2023/04/03 09:08:53;;;;;;;8.23;1.63;;;6.40;99.90;;;;;;4977140;28;20117;-54
2023/04/03 09:11:37;;;;;;;4.97;1.98;;;6.50;99.90;;;;;;4981299;28;20081;-55
2023/04/03 09:14:23;;;;;;;4.00;1.50;;;6.50;99.90;;;;;;4979333;28;20109;-55
2023/04/03 09:16:57;;;;;;;5.80;1.70;;;6.60;99.90;;;;;;4978265;28;20058;-55
2023/04/03 09:19:34;;;;;;;6.45;1.80;;;6.60;99.90;;;;;;4977136;28;20117;-54
2023/04/03 09:22:10;;;;;;;5.53;1.70;;;6.50;99.90;;;;;;4979978;28;20481;-54
2023/04/03 09:24:37;;;;;;;4.85;1.85;;;6.60;99.90;;;;;;4979099;28;20088;-54
2023/04/03 09:27:10;;;;;;;9.48;4.45;;;6.50;99.90;;;;;;4982348;28;20026;-54
2023/04/03 09:29:43;;;;;;;3.78;1.50;;;6.60;99.90;;;;;;4982181;28;20062;-54
2023/04/03 09:32:28;;;;;;;2.60;1.50;;;6.80;99.90;;;;;;4983185;28;20034;-55
2023/04/03 09:34:56;;;;;;;4.93;1.15;;;7.00;99.90;;;;;;4984825;28;20038;-55
2023/04/03 09:37:58;;;;;;;5.10;1.50;;;6.90;99.90;;;;;;4983202;28;20042;-55
2023/04/03 09:40:33;;;;;;;4.20;1.50;;;7.00;99.90;;;;;;4949807;28;20038;-55
2023/04/03 09:43:21;;;;;;;5.05;1.20;;;6.90;99.90;;;;;;4984381;28;20030;-54
2023/04/03 09:45:48;;;;;;;7.40;1.02;;;6.60;99.90;;;;;;4980627;28;20155;-54
2023/04/03 09:48:14;;;;;;;3.08;1.20;;;6.70;99.90;;;;;;4980163;28;20459;-55
2023/04/03 09:50:55;;;;;;;5.50;1.00;;;6.70;99.90;;;;;;4981310;28;20066;-55
2023/04/03 09:53:31;;;;;;;2.78;1.10;;;6.80;99.90;;;;;;4982759;28;20033;-55
2023/04/03 09:55:58;;;;;;;2.53;0.70;;;6.80;99.90;;;;;;4983175;28;20172;-55
2023/04/03 09:58:30;;;;;;;4.90;1.10;;;6.70;99.90;;;;;;4981259;28;20486;-55
2023/04/03 10:01:01;;;;;;;4.22;1.17;;;6.90;99.90;;;;;;4983105;28;20029;-54
2023/04/03 10:03:32;;;;;;;2.47;0.88;;;7.00;99.90;;;;;;4980143;28;20539;-55
2023/04/03 10:05:58;;;;;;;2.75;0.93;;;7.10;99.90;;;;;;4981151;28;20129;-55
2023/04/03 10:08:33;;;;;;;5.05;1.55;;;7.10;99.90;;;;;;4983048;28;20066;-54
2023/04/03 10:11:09;;;;;;;3.83;1.20;;;7.30;99.90;;;;;;4985882;28;20478;-55
2023/04/03 10:13:35;;;;;;;3.13;1.15;;;7.20;99.90;;;;;;4981154;28;20225;-55
2023/04/03 10:16:11;;;;;;;3.25;1.33;;;7.10;99.90;;;;;;4981016;28;20466;-55
2023/04/03 10:19:09;;;;;;;3.88;0.98;;;7.10;99.90;;;;;;4984354;28;20043;-55
2023/04/03 10:21:39;;;;;;;2.63;0.88;;;7.10;99.90;;;;;;4978775;28;20623;-54
2023/04/03 10:24:05;;;;;;;3.45;0.82;;;7.20;99.90;;;;;;4979652;28;20026;-55
2023/04/03 10:26:49;;;;;;;2.42;0.90;;;7.10;99.90;;;;;;4988744;28;20038;-55
2023/04/03 10:29:20;;;;;;;5.22;1.08;;;7.10;99.90;;;;;;4982968;28;20054;-54
2023/04/03 10:31:53;;;;;;;2.00;0.98;;;7.00;98.70;;;;;;4982816;28;20513;-55
2023/04/03 10:34:28;;;;;;;2.00;0.80;;;7.00;99.90;;;;;;4982829;28;20035;-55
2023/04/03 10:37:10;;;;;;;1.75;0.85;;;7.20;99.90;;;;;;4985292;28;21042;-55
2023/04/03 10:39:45;;;;;;;3.20;1.10;;;7.30;99.90;;;;;;4983323;28;20435;-55
2023/04/03 10:42:29;;;;;;;4.28;1.00;;;7.30;99.40;;;;;;4981196;28;20054;-55
2023/04/03 10:45:19;;;;;;;3.13;1.00;;;7.50;99.00;;;;;;4982324;28;20121;-55
2023/04/03 10:48:11;;;;;;;8.02;1.33;;;7.50;99.90;;;;;;4982251;28;20156;-55
2023/04/03 10:51:10;;;;;;;4.28;1.08;;;7.60;99.90;;;;;;4978463;28;20030;-56
2023/04/03 10:53:45;;;;;;;3.20;1.20;;;7.60;99.90;;;;;;4980270;28;20030;-55
2023/04/03 10:56:30;;;;;;;2.33;1.10;;;7.70;99.90;;;;;;4976710;28;20812;-55
2023/04/03 10:59:06;;;;;;;2.15;0.80;;;7.70;99.90;;;;;;4978370;28;20109;-54
2023/04/03 11:01:40;;;;;;;5.75;1.00;;;7.60;99.60;;;;;;4977117;28;20046;-55
2023/04/03 11:04:05;;;;;;;;;;;7.50;99.90;;;;;;4975196;28;20022;-55
2023/04/03 11:07:18;;;;;;;4.88;1.25;;;7.60;99.90;;;;;;4980371;28;19924;-55
2023/04/03 11:09:48;;;;;;;3.88;1.38;;;7.60;99.90;;;;;;4970357;28;20491;-55
2023/04/03 11:12:43;;;;;;;3.75;1.05;;;7.50;99.90;;;;;;4971827;28;20478;-55
2023/04/03 11:15:17;;;;;;;3.42;1.10;;;7.70;99.90;;;;;;4962139;28;20084;-55
2023/04/03 11:17:58;;;;;;;2.75;1.10;;;7.60;99.90;;;;;;4979704;28;20039;-55
2023/04/03 11:20:32;;;;;;;2.53;1.10;;;7.60;99.90;;;;;;4972984;28;20035;-55
2023/04/03 11:23:20;;;;;;;2.50;1.27;;;7.60;99.90;;;;;;4978328;28;20046;-55
2023/04/03 11:25:49;;;;;;;3.95;1.90;;;7.80;99.90;;;;;;4970293;28;20027;-56
2023/04/03 11:28:15;;;;;;;4.05;1.15;;;7.90;99.90;;;;;;4981358;28;20722;-55
2023/04/03 11:31:07;;;;;;;2.40;1.20;;;8.00;99.90;;;;;;4978146;28;20211;-55
2023/04/03 11:33:50;;;;;;;2.05;1.02;;;7.80;99.90;;;;;;4978734;28;20504;-55
2023/04/03 11:36:26;;;;;;;6.85;1.20;;;7.80;99.90;;;;;;4977648;28;20045;-55
2023/04/03 11:38:58;;;;;;;5.00;1.73;;;7.90;99.90;;;;;;4980536;28;20068;-55
2023/04/03 11:41:30;;;;;;;2.80;1.20;;;7.90;99.90;;;;;;4979983;28;20439;-55
2023/04/03 11:43:59;;;;;;;4.73;1.77;;;7.70;99.90;;;;;;4981667;28;20042;-55
2023/04/03 11:46:51;;;;;;;2.78;1.52;;;7.80;99.90;;;;;;4980253;28;20047;-55
2023/04/03 11:49:57;;;;;;;3.90;1.48;;;8.00;99.90;;;;;;4973377;28;20034;-55
2023/04/03 11:52:42;;;;;;;4.55;1.50;;;8.00;99.90;;;;;;4979938;28;20041;-55
2023/04/03 11:55:22;;;;;;;6.45;1.60;;;7.90;99.90;;;;;;4979535;28;20481;-55
2023/04/03 11:57:57;;;;;;;4.45;1.60;;;7.90;99.90;;;;;;4981586;28;20470;-61
2023/04/03 12:00:51;;;;;;;4.43;1.58;;;8.00;99.90;;;;;;4981327;28;20592;-61
2023/04/03 12:03:22;;;;;;;6.35;1.90;;;8.10;99.90;;;;;;4983062;28;20096;-62
2023/04/03 12:05:48;;;;;;;3.40;1.20;;;8.10;99.90;;;;;;4979994;28;20458;-61
2023/04/03 12:08:32;;;;;;;2.85;1.45;;;8.30;99.90;;;;;;4979933;28;20042;-62
2023/04/03 12:11:12;;;;;;;4.45;1.90;;;8.20;99.90;;;;;;4981394;28;20504;-61
2023/04/03 12:13:56;;;;;;;4.43;1.70;;;8.20;99.90;;;;;;4981230;28;20054;-61
2023/04/03 12:16:26;;;;;;;7.20;2.45;;;8.10;99.90;;;;;;4977624;28;20085;-61
2023/04/03 12:18:52;;;;;;;4.40;1.60;;;8.20;99.90;;;;;;4981612;28;20053;-65
2023/04/03 12:21:51;;;;;;;4.68;1.80;;;8.20;99.90;;;;;;4980891;28;20030;-61
2023/04/03 12:24:17;;;;;;;4.70;1.20;;;8.20;99.90;;;;;;4963078;28;20061;-61
2023/04/03 12:27:01;;;;;;;4.38;1.67;;;8.10;99.90;;;;;;4968240;28;20467;-61
2023/04/03 12:29:33;;;;;;;5.18;1.63;;;8.20;99.90;;;;;;4980732;28;20054;-62
2023/04/03 12:32:23;;;;;;;5.50;1.20;;;8.30;99.90;;;;;;4978707;28;20073;-61
2023/04/03 12:35:17;;;;;;;3.55;1.40;;;8.30;99.90;;;;;;4980311;28;20363;-61
2023/04/03 12:38:15;;;;;;;3.88;1.45;;;8.20;99.90;;;;;;4977262;28;20030;-61
2023/04/03 12:41:14;;;;;;;4.15;1.30;;;8.00;99.90;;;;;;4978023;28;20035;-61
2023/04/03 12:44:05;;;;;;;3.08;1.55;;;8.20;99.90;;;;;;4979235;28;20038;-61
2023/04/03 12:46:40;;;;;;;4.95;1.35;;;8.30;99.90;;;;;;4977914;28;20466;-61
2023/04/03 12:49:35;;;;;;;3.63;1.48;;;8.50;99.90;;;;;;4978567;28;20053;-61
2023/04/03 12:52:05;;;;;;;3.80;0.95;;;8.30;99.90;;;;;;4979831;28;20036;-62
2023/04/03 12:54:41;;;;;;;6.65;1.50;;;8.30;99.90;;;;;;4980764;28;20038;-62
2023/04/03 12:57:19;;;;;;;4.68;1.40;;;8.30;99.90;;;;;;4981137;28;20030;-62
2023/04/03 12:59:46;;;;;;;2.53;1.17;;;8.30;99.90;;;;;;4982277;28;20026;-62
2023/04/03 13:02:27;;;;;;;2.47;1.30;;;8.50;99.90;;;;;;4983842;28;20038;-62
2023/04/03 13:04:58;;;;;;;3.38;1.50;;;8.50;99.90;;;;;;4983327;28;20046;-59
2023/04/03 13:07:37;;;;;;;2.80;1.38;;;8.60;99.90;;;;;;4981586;28;20046;-67
2023/04/03 13:10:08;;;;;;;3.30;1.90;;;8.50;99.90;;;;;;4980565;28;20061;-68
2023/04/03 13:12:45;;;;;;;4.25;1.45;;;8.60;99.90;;;;;;4992055;28;20034;-67